Time;durP1;ratioP1;P1;durP2;ratioP2;P2;SDS_P1;SDS_P2;PMS_P1;PMS_P2;Temp;Humidity;BMP_temperature;BMP_pressure;BME280_temperature;BME280_humidity;BME280_pressure;Samples;Min_cycle;Max_cycle;Signal;HPM_P1;HPM_P2
2022/11/26 00:01:19;;;;;;;113.80;48.50;;;;;;;2.47;92.13;101055.29;100342;1291;80548;-61
2022/11/26 00:03:51;;;;;;;117.40;47.30;;;;;;;2.45;91.99;101053.14;100292;1300;99386;-57
2022/11/26 00:06:31;;;;;;;118.90;44.70;;;;;;;2.49;92.16;101052.86;100305;1293;94112;-57
2022/11/26 00:09:05;;;;;;;112.90;42.80;;;;;;;2.47;92.19;101055.46;100341;1293;83149;-58
2022/11/26 00:11:35;;;;;;;;;;;;;;;2.46;92.19;101056.81;100329;1293;87978;-58
2022/11/26 00:14:14;;;;;;;119.50;45.30;;;;;;;2.45;92.05;101056.84;100329;1293;81575;-61
2022/11/26 00:16:46;;;;;;;125.40;46.90;;;;;;;2.50;92.16;101054.02;100359;1293;97411;-60
2022/11/26 00:19:16;;;;;;;;;;;;;;;2.52;92.08;101055.60;100371;1293;94606;-60
2022/11/26 00:21:45;;;;;;;141.30;61.90;;;;;;;2.53;92.30;101057.46;100341;1291;81356;-61
2022/11/26 00:24:26;;;;;;;123.10;55.10;;;;;;;2.54;92.28;101056.84;100376;1299;88401;-57
2022/11/26 00:27:00;;;;;;;125.60;51.50;;;;;;;2.59;92.20;101063.19;100360;1296;79867;-57
2022/11/26 00:29:28;;;;;;;124.10;49.30;;;;;;;2.56;92.11;101062.16;100373;1293;99476;-59
2022/11/26 00:32:02;;;;;;;125.00;47.70;;;;;;;2.54;92.34;101064.15;100328;1291;95070;-60
2022/11/26 00:34:33;;;;;;;124.80;45.50;;;;;;;2.54;92.17;101065.73;100340;1293;81194;-57
2022/11/26 00:37:03;;;;;;;110.80;43.80;;;;;;;2.51;92.12;101068.13;100283;1293;88804;-57
2022/11/26 00:39:34;;;;;;;124.70;46.80;;;;;;;2.53;91.89;101075.06;100347;1291;81651;-60
2022/11/26 00:42:04;;;;;;;118.10;46.30;;;;;;;2.56;92.14;101073.26;100334;1296;98651;-61
2022/11/26 00:44:34;;;;;;;114.90;46.10;;;;;;;2.59;92.16;101070.67;100291;1296;95128;-60
2022/11/26 00:47:05;;;;;;;114.10;46.10;;;;;;;2.61;92.18;101071.42;100328;1296;82565;-60
2022/11/26 00:49:37;;;;;;;107.50;45.20;;;;;;;2.62;92.19;101070.23;100325;1296;87910;-57
2022/11/26 00:52:28;;;;;;;117.70;46.60;;;;;;;2.65;92.17;101071.57;100370;1296;80296;-58
2022/11/26 00:55:10;;;;;;;105.00;45.20;;;;;;;2.69;92.16;101074.86;100365;1296;98331;-58
2022/11/26 00:57:39;;;;;;;113.40;42.90;;;;;;;2.65;92.05;101077.45;100346;1297;95356;-57
2022/11/26 01:00:23;;;;;;;114.60;42.50;;;;;;;2.58;91.87;101079.25;100358;1293;81241;-58
2022/11/26 01:02:55;;;;;;;107.00;42.90;;;;;;;2.53;91.98;101078.80;100389;1291;87324;-58
2022/11/26 01:05:32;;;;;;;102.10;41.80;;;;;;;2.56;92.08;101079.30;100340;1296;81468;-61
2022/11/26 01:08:11;;;;;;;104.00;41.90;;;;;;;2.59;91.92;101085.05;100376;1296;98535;-61
2022/11/26 01:10:45;;;;;;;102.40;42.30;;;;;;;2.61;92.20;101084.18;100322;1300;94802;-61
2022/11/26 01:13:17;;;;;;;111.40;45.50;;;;;;;2.64;92.29;101084.64;100401;1293;81066;-58
2022/11/26 01:15:52;;;;;;;106.70;43.60;;;;;;;2.67;92.19;101085.70;100316;1299;89192;-58
2022/11/26 01:18:20;;;;;;;;;;;;;;;2.68;92.23;101078.64;100374;1291;79905;-58
2022/11/26 01:20:50;;;;;;;107.40;43.10;;;;;;;2.67;92.33;101080.90;100290;1293;99216;-58
2022/11/26 01:23:22;;;;;;;105.20;41.90;;;;;;;2.65;92.38;101082.81;100319;1296;94420;-60
2022/11/26 01:25:57;;;;;;;103.20;40.50;;;;;;;2.62;92.43;101083.05;100315;1297;82301;-60
2022/11/26 01:28:28;;;;;;;101.70;41.00;;;;;;;2.62;92.29;101083.26;100269;1294;88682;-58
2022/11/26 01:30:59;;;;;;;102.00;39.30;;;;;;;2.65;92.38;101082.48;100312;1293;79638;-58
2022/11/26 01:33:31;;;;;;;94.80;38.00;;;;;;;2.64;92.35;101082.30;100355;1293;99002;-58
2022/11/26 01:36:00;;;;;;;100.00;41.90;;;;;;;2.65;92.25;101081.73;100330;1289;95862;-58
2022/11/26 01:38:29;;;;;;;99.30;40.00;;;;;;;2.68;92.38;101081.88;100381;1290;83107;-57
2022/11/26 01:41:27;;;;;;;103.60;43.30;;;;;;;2.71;92.26;101084.64;100344;1293;86854;-57
2022/11/26 01:43:58;;;;;;;115.50;44.70;;;;;;;2.73;92.26;101084.46;100369;1296;78311;-60
2022/11/26 01:46:31;;;;;;;103.70;44.20;;;;;;;2.75;92.30;101092.10;100416;1299;98942;-61
2022/11/26 01:49:25;;;;;;;106.60;42.60;;;;;;;2.75;92.41;101090.02;100406;1296;93920;-60
2022/11/26 01:52:04;;;;;;;102.20;43.50;;;;;;;2.73;92.25;101088.34;100343;1291;82245;-60
2022/11/26 01:54:39;;;;;;;100.80;42.20;;;;;;;2.72;92.16;101091.14;100332;1293;88415;-57
2022/11/26 01:57:21;;;;;;;109.90;44.00;;;;;;;2.73;92.23;101094.59;100346;1292;81168;-58
2022/11/26 01:59:56;;;;;;;103.00;40.90;;;;;;;2.75;92.31;101091.44;100361;1294;96681;-58
2022/11/26 02:02:29;;;;;;;98.20;41.90;;;;;;;2.77;92.41;101094.48;100316;1296;95047;-58
2022/11/26 02:05:07;;;;;;;107.50;44.20;;;;;;;2.76;92.24;101096.67;100313;1297;82498;-57
2022/11/26 02:07:40;;;;;;;100.10;42.80;;;;;;;2.77;92.37;101094.70;100302;1296;87903;-58
2022/11/26 02:10:15;;;;;;;101.40;42.90;;;;;;;2.76;92.46;101098.77;100309;1299;77917;-58
2022/11/26 02:12:45;;;;;;;108.70;43.00;;;;;;;2.74;92.58;101097.69;100353;1296;96539;-58
2022/11/26 02:15:19;;;;;;;106.40;42.00;;;;;;;2.76;92.50;101096.80;100284;1290;95078;-58
2022/11/26 02:17:53;;;;;;;106.10;42.90;;;;;;;2.73;92.56;101103.70;100354;1291;82819;-57
2022/11/26 02:20:45;;;;;;;114.20;42.70;;;;;;;2.72;92.54;101101.23;100327;1297;88626;-58
2022/11/26 02:24:14;;;;;;;109.60;43.20;;;;;;;2.73;92.56;101098.71;100360;1297;78718;-60
2022/11/26 02:27:39;;;;;;;103.60;43.10;;;;;;;2.75;92.52;101104.57;100345;1293;97740;-61
2022/11/26 02:30:14;;;;;;;98.60;43.50;;;;;;;2.73;92.45;101102.40;100324;1299;94543;-60
2022/11/26 02:33:07;;;;;;;111.10;44.50;;;;;;;2.72;92.57;101109.08;100377;1296;83289;-60
2022/11/26 02:35:42;;;;;;;104.20;43.90;;;;;;;2.68;92.44;101112.47;100110;1298;363156;-61
2022/11/26 02:38:21;;;;;;;99.90;42.30;;;;;;;2.64;92.59;101111.13;100375;1284;78129;-59
2022/11/26 02:40:53;;;;;;;98.40;39.80;;;;;;;2.63;92.41;101109.33;100362;1290;97780;-61
2022/11/26 02:43:23;;;;;;;94.70;40.20;;;;;;;2.58;92.37;101105.80;100338;1297;94840;-59
2022/11/26 02:45:59;;;;;;;100.10;39.10;;;;;;;2.58;92.46;101111.12;100357;1292;82928;-60
2022/11/26 02:48:37;;;;;;;97.30;41.10;;;;;;;2.58;92.46;101107.39;100342;1299;88700;-57
2022/11/26 02:51:13;;;;;;;92.40;39.70;;;;;;;2.62;92.49;101106.85;100316;1299;81099;-57
2022/11/26 02:53:43;;;;;;;93.90;40.40;;;;;;;2.63;92.70;101106.60;100262;1289;98981;-60
2022/11/26 02:56:19;;;;;;;98.80;43.10;;;;;;;2.66;92.57;101106.75;100322;1294;93241;-60
2022/11/26 02:58:51;;;;;;;91.50;39.40;;;;;;;2.61;92.50;101108.73;100325;1299;82341;-57
2022/11/26 03:01:30;;;;;;;88.30;40.20;;;;;;;2.58;92.55;101109.13;100312;1299;88541;-57
2022/11/26 03:04:04;;;;;;;87.50;38.30;;;;;;;2.59;92.55;101105.67;100313;1299;81004;-57
2022/11/26 03:06:40;;;;;;;83.90;37.10;;;;;;;2.62;92.52;101101.59;100380;1296;97444;-57
2022/11/26 03:09:11;;;;;;;83.50;36.50;;;;;;;2.59;92.45;101107.14;100401;1291;94488;-59
2022/11/26 03:11:42;;;;;;;80.00;35.70;;;;;;;2.54;92.38;101106.77;100336;1296;81502;-60
2022/11/26 03:14:12;;;;;;;84.70;35.60;;;;;;;2.51;92.62;101109.19;100355;1299;89274;-57
2022/11/26 03:16:40;;;;;;;84.70;38.60;;;;;;;2.50;92.53;101112.45;100372;1299;77691;-57
2022/11/26 03:19:12;;;;;;;86.50;39.60;;;;;;;2.53;92.62;101116.48;100382;1297;97536;-59
2022/11/26 03:21:41;;;;;;;89.10;39.20;;;;;;;2.55;92.65;101115.41;100355;1292;93851;-61
2022/11/26 03:24:13;;;;;;;85.40;39.30;;;;;;;2.54;92.54;101122.45;100404;1294;82591;-60
2022/11/26 03:26:45;;;;;;;91.00;39.10;;;;;;;2.51;92.63;101118.63;100315;1296;88858;-61
2022/11/26 03:29:14;;;;;;;86.20;37.00;;;;;;;2.48;92.62;101117.96;100365;1296;78651;-57
2022/11/26 03:31:46;;;;;;;88.10;38.40;;;;;;;2.45;92.64;101119.25;100331;1293;97369;-58
2022/11/26 03:34:20;;;;;;;83.90;36.30;;;;;;;2.44;92.65;101119.48;100311;1296;95355;-60
2022/11/26 03:36:49;;;;;;;83.60;36.70;;;;;;;2.42;92.68;101118.98;100328;1296;83329;-60
2022/11/26 03:39:21;;;;;;;88.10;40.50;;;;;;;2.42;92.73;101120.25;100328;1296;86811;-58
2022/11/26 03:41:50;;;;;;;102.40;46.00;;;;;;;2.44;92.58;101125.02;100327;1299;80039;-58
2022/11/26 03:44:19;;;;;;;113.60;50.60;;;;;;;2.43;92.58;101129.56;100333;1296;97962;-58
2022/11/26 03:46:52;;;;;;;;;;;;;;;2.40;92.32;101130.66;100324;1296;95070;-58
2022/11/26 03:49:25;;;;;;;99.50;44.70;;;;;;;2.36;92.42;101133.79;100374;1296;81755;-60
2022/11/26 03:51:56;;;;;;;97.90;41.10;;;;;;;2.34;92.36;101134.45;100356;1293;89378;-61
2022/11/26 03:54:31;;;;;;;89.40;39.90;;;;;;;2.34;92.44;101137.68;100387;1296;80994;-58
2022/11/26 03:57:04;;;;;;;89.90;39.10;;;;;;;2.34;92.57;101137.39;100325;1296;98364;-58
2022/11/26 03:59:36;;;;;;;89.70;36.20;;;;;;;2.34;92.63;101143.20;100320;1296;93642;-61
2022/11/26 04:02:10;;;;;;;90.10;38.30;;;;;;;2.32;92.59;101140.15;100362;1291;83528;-61
2022/11/26 04:04:39;;;;;;;85.00;35.40;;;;;;;2.28;92.51;101140.30;100411;1293;89303;-60
2022/11/26 04:07:14;;;;;;;85.10;38.00;;;;;;;2.31;92.40;101145.40;100406;1296;79286;-60
2022/11/26 04:09:46;;;;;;;93.50;38.20;;;;;;;2.35;92.50;101144.73;100368;1296;98561;-61
2022/11/26 04:12:17;;;;;;;94.60;40.50;;;;;;;2.34;92.71;101146.95;100402;1297;95781;-61
2022/11/26 04:14:47;;;;;;;102.40;42.90;;;;;;;2.33;92.61;101148.10;100393;1291;81957;-60
2022/11/26 04:17:18;;;;;;;100.70;42.60;;;;;;;2.33;92.84;101152.37;100378;1296;89188;-60
2022/11/26 04:19:52;;;;;;;98.50;40.60;;;;;;;2.32;92.87;101153.84;100346;1290;80893;-60
2022/11/26 04:22:25;;;;;;;96.00;40.40;;;;;;;2.30;92.76;101153.63;100312;1296;97652;-60
2022/11/26 04:24:54;;;;;;;96.50;38.60;;;;;;;2.30;92.83;101155.10;100324;1299;95079;-58
2022/11/26 04:27:25;;;;;;;94.50;39.80;;;;;;;2.29;92.94;101157.84;100318;1296;81173;-58
2022/11/26 04:29:54;;;;;;;92.30;37.90;;;;;;;2.30;92.74;101162.55;100325;1291;86627;-59
2022/11/26 04:32:25;;;;;;;86.50;38.50;;;;;;;2.30;92.64;101157.94;100319;1298;81388;-60
2022/11/26 04:34:57;;;;;;;97.70;43.10;;;;;;;2.33;92.77;101162.89;100343;1299;97838;-60
2022/11/26 04:37:25;;;;;;;98.30;44.40;;;;;;;2.33;92.52;101163.52;100305;1299;95430;-60
2022/11/26 04:39:57;;;;;;;94.40;41.90;;;;;;;2.36;92.75;101163.16;100360;1296;83371;-58
2022/11/26 04:42:27;;;;;;;100.50;43.20;;;;;;;2.33;92.65;101165.83;100372;1291;88977;-58
2022/11/26 04:44:58;;;;;;;95.30;41.50;;;;;;;2.33;92.78;101167.32;100368;1300;79856;-60
2022/11/26 04:47:29;;;;;;;98.70;41.40;;;;;;;2.33;92.75;101171.71;100338;1294;98880;-60
2022/11/26 04:50:05;;;;;;;91.30;37.70;;;;;;;2.30;92.89;101174.25;100380;1296;95990;-59
2022/11/26 04:52:34;;;;;;;93.90;39.20;;;;;;;2.28;92.85;101180.50;100406;1296;82324;-59
2022/11/26 04:55:09;;;;;;;91.30;38.90;;;;;;;2.28;92.74;101182.10;100408;1296;88787;-60
2022/11/26 04:57:39;;;;;;;88.30;39.30;;;;;;;2.30;92.58;101188.49;100372;1291;79695;-60
2022/11/26 05:00:14;;;;;;;85.10;37.50;;;;;;;2.29;92.74;101185.75;100406;1290;98106;-57
2022/11/26 05:02:46;;;;;;;79.90;34.30;;;;;;;2.28;92.63;101186.53;100360;1299;94168;-57
2022/11/26 05:05:16;;;;;;;75.00;32.80;;;;;;;2.27;92.67;101186.82;100435;1296;83078;-60
2022/11/26 05:07:48;;;;;;;71.70;33.30;;;;;;;2.29;92.86;101190.51;100349;1296;88608;-60
2022/11/26 05:10:17;;;;;;;74.50;32.70;;;;;;;2.27;92.77;101188.02;100345;1296;79464;-61
2022/11/26 05:12:47;;;;;;;70.80;31.20;;;;;;;2.26;92.70;101192.51;100235;1300;96409;-61
2022/11/26 05:15:21;;;;;;;71.70;30.80;;;;;;;2.27;92.63;101193.39;100296;1296;95062;-60
2022/11/26 05:17:52;;;;;;;70.70;33.00;;;;;;;2.30;92.56;101196.35;100318;1296;83093;-60
2022/11/26 05:20:22;;;;;;;62.90;30.70;;;;;;;2.29;92.72;101196.58;100338;1296;87182;-58
2022/11/26 05:22:56;;;;;;;70.50;31.60;;;;;;;2.28;92.61;101198.43;100326;1292;80349;-58
2022/11/26 05:25:32;;;;;;;69.70;31.90;;;;;;;2.25;92.38;101201.29;100376;1290;98565;-57
2022/11/26 05:28:05;;;;;;;68.30;31.80;;;;;;;2.24;92.54;101198.73;100401;1299;95741;-57
2022/11/26 05:30:37;;;;;;;61.50;28.70;;;;;;;2.20;92.62;101201.87;100371;1291;82398;-57
2022/11/26 05:33:09;;;;;;;61.70;29.70;;;;;;;2.18;92.43;101203.27;100375;1296;88783;-57
2022/11/26 05:35:39;;;;;;;67.00;29.40;;;;;;;2.11;92.40;101203.67;100334;1299;80577;-57
2022/11/26 05:38:10;;;;;;;61.20;27.90;;;;;;;2.10;92.32;101211.19;100391;1299;98866;-57
2022/11/26 05:40:45;;;;;;;56.60;27.90;;;;;;;2.10;92.39;101212.23;100386;1297;94206;-61
2022/11/26 05:43:14;;;;;;;57.70;27.10;;;;;;;2.09;92.37;101211.08;100415;1296;84100;-57
2022/11/26 05:45:46;;;;;;;53.70;25.50;;;;;;;2.11;92.43;101215.23;100345;1296;89229;-57
2022/11/26 05:48:20;;;;;;;56.00;25.00;;;;;;;2.11;92.61;101223.33;100387;1297;81222;-57
2022/11/26 05:50:58;;;;;;;59.50;27.10;;;;;;;2.11;92.47;101224.44;100325;1291;99955;-57
2022/11/26 05:53:27;;;;;;;58.20;26.50;;;;;;;2.13;92.44;101224.27;100342;1296;95047;-58
2022/11/26 05:55:56;;;;;;;59.30;26.80;;;;;;;2.16;92.58;101232.43;100316;1298;83173;-58
2022/11/26 05:58:31;;;;;;;64.70;28.90;;;;;;;2.15;92.48;101236.77;100307;1299;88886;-58
2022/11/26 06:01:09;;;;;;;65.20;29.70;;;;;;;2.08;92.42;101243.63;100326;1297;79157;-58
2022/11/26 06:03:42;;;;;;;62.60;27.10;;;;;;;2.08;92.32;101248.70;100291;1297;99569;-61
2022/11/26 06:06:11;;;;;;;65.60;28.50;;;;;;;2.05;92.28;101254.73;100307;1299;94953;-61
2022/11/26 06:08:40;;;;;;;58.00;25.30;;;;;;;2.00;92.09;101255.80;100330;1294;82467;-58
2022/11/26 06:11:13;;;;;;;61.00;25.90;;;;;;;1.98;92.21;101251.88;100344;1291;89376;-57
2022/11/26 06:13:46;;;;;;;54.10;24.30;;;;;;;2.00;92.26;101257.07;100354;1296;80525;-60
2022/11/26 06:16:15;;;;;;;52.70;24.40;;;;;;;2.03;92.13;101254.02;100366;1297;98738;-61
2022/11/26 06:18:52;;;;;;;56.20;25.80;;;;;;;2.08;92.21;101256.49;100257;1298;96402;-58
2022/11/26 06:21:23;;;;;;;58.50;27.30;;;;;;;2.08;92.13;101261.08;100347;1297;81369;-58
2022/11/26 06:23:54;;;;;;;58.20;27.40;;;;;;;2.09;91.91;101265.44;100354;1297;86872;-59
2022/11/26 06:26:26;;;;;;;60.10;26.30;;;;;;;2.05;92.05;101269.13;100330;1296;79771;-59
2022/11/26 06:28:57;;;;;;;60.80;26.70;;;;;;;2.06;92.08;101269.63;100326;1296;97922;-57
2022/11/26 06:31:26;;;;;;;56.80;24.00;;;;;;;2.01;92.11;101267.64;100364;1296;93783;-58
2022/11/26 06:33:58;;;;;;;50.80;24.70;;;;;;;1.98;92.14;101270.77;100349;1289;81406;-59
2022/11/26 06:36:29;;;;;;;50.40;23.50;;;;;;;1.95;92.11;101273.09;100302;1296;89089;-59
2022/11/26 06:39:02;;;;;;;55.80;24.10;;;;;;;1.96;92.24;101279.73;100313;1299;81584;-57
2022/11/26 06:41:35;;;;;;;57.00;24.20;;;;;;;1.97;92.15;101282.70;100267;1293;98149;-56
2022/11/26 06:44:07;;;;;;;51.20;23.50;;;;;;;1.97;92.29;101281.64;100320;1296;95595;-59
2022/11/26 06:46:38;;;;;;;56.90;24.00;;;;;;;1.98;92.32;101286.15;100325;1299;81232;-60
2022/11/26 06:49:08;;;;;;;54.90;24.10;;;;;;;1.97;92.20;101283.42;100327;1297;89343;-59
2022/11/26 06:51:41;;;;;;;58.00;26.10;;;;;;;1.92;92.33;101290.54;100352;1293;79811;-60
2022/11/26 06:54:12;;;;;;;52.40;25.60;;;;;;;1.91;92.42;101287.80;100258;1298;99180;-58
2022/11/26 06:56:42;;;;;;;60.50;26.40;;;;;;;1.84;92.24;101292.73;100335;1296;95030;-57
2022/11/26 06:59:15;;;;;;;59.20;25.60;;;;;;;1.85;92.07;101298.36;100387;1299;80931;-57
2022/11/26 07:01:44;;;;;;;60.40;26.70;;;;;;;1.84;92.16;101299.11;100383;1299;87507;-58
2022/11/26 07:04:15;;;;;;;54.70;26.60;;;;;;;1.84;91.97;101300.90;100383;1296;78349;-57
2022/11/26 07:06:49;;;;;;;58.60;27.60;;;;;;;1.85;92.03;101304.93;100412;1299;97835;-58
2022/11/26 07:09:23;;;;;;;58.60;27.00;;;;;;;1.85;92.22;101310.92;100342;1291;95136;-60
2022/11/26 07:11:53;;;;;;;54.80;24.40;;;;;;;1.87;92.19;101312.73;100390;1293;82486;-61
2022/11/26 07:14:24;;;;;;;49.40;23.70;;;;;;;1.87;92.11;101309.20;100364;1296;87640;-58
2022/11/26 07:16:53;;;;;;;53.20;23.90;;;;;;;1.84;92.11;101310.65;100380;1291;78564;-58
2022/11/26 07:19:28;;;;;;;53.20;24.00;;;;;;;1.83;92.05;101312.52;100389;1292;100584;-61
2022/11/26 07:21:58;;;;;;;47.70;22.60;;;;;;;1.85;91.96;101313.09;100358;1291;94194;-61
2022/11/26 07:24:30;;;;;;;51.70;21.20;;;;;;;1.84;91.96;101315.64;100356;1296;82982;-58
2022/11/26 07:27:00;;;;;;;57.60;23.80;;;;;;;1.86;91.85;101316.23;100311;1291;86422;-57
2022/11/26 07:29:34;;;;;;;53.10;23.50;;;;;;;1.83;91.95;101321.26;100294;1297;83472;-57
2022/11/26 07:32:08;;;;;;;52.50;22.60;;;;;;;1.83;91.97;101328.54;100296;1296;98324;-57
2022/11/26 07:34:38;;;;;;;52.40;23.40;;;;;;;1.82;91.95;101324.98;100351;1298;93093;-57
2022/11/26 07:37:09;;;;;;;60.60;26.10;;;;;;;1.84;92.10;101341.07;100332;1299;83269;-57
2022/11/26 07:39:39;;;;;;;53.30;24.90;;;;;;;1.85;92.00;101345.77;100328;1293;88359;-60
2022/11/26 07:42:15;;;;;;;52.70;24.20;;;;;;;1.87;91.92;101346.15;100316;1293;79219;-59
2022/11/26 07:44:50;;;;;;;50.80;26.00;;;;;;;1.87;91.96;101351.81;100355;1292;98746;-57
2022/11/26 07:47:21;;;;;;;58.60;25.80;;;;;;;1.86;91.97;101353.50;100353;1291;96132;-57
2022/11/26 07:49:55;;;;;;;47.00;21.90;;;;;;;1.86;91.70;101358.63;100362;1299;81918;-57
2022/11/26 07:52:27;;;;;;;47.50;21.90;;;;;;;1.80;91.64;101360.15;100356;1296;88010;-58
2022/11/26 07:54:58;;;;;;;49.50;23.70;;;;;;;1.84;91.92;101361.30;100395;1299;81268;-57
2022/11/26 07:57:28;;;;;;;50.80;23.90;;;;;;;1.92;91.91;101365.88;100404;1293;98582;-57
2022/11/26 07:59:57;;;;;;;47.20;21.50;;;;;;;1.97;91.91;101371.54;100351;1296;94626;-60
2022/11/26 08:02:26;;;;;;;53.90;23.10;;;;;;;2.00;91.77;101372.01;100382;1299;82653;-57
2022/11/26 08:04:58;;;;;;;47.20;23.60;;;;;;;2.02;91.75;101373.11;100379;1299;86869;-60
2022/11/26 08:07:31;;;;;;;50.00;22.50;;;;;;;2.04;91.93;101374.56;100381;1299;76861;-60
2022/11/26 08:10:00;;;;;;;52.20;23.60;;;;;;;2.07;91.82;101374.84;100382;1293;97226;-60
2022/11/26 08:12:29;;;;;;;46.40;24.00;;;;;;;2.08;91.73;101375.31;100316;1296;94118;-60
2022/11/26 08:14:58;;;;;;;54.00;24.40;;;;;;;2.07;91.77;101376.09;100376;1292;81383;-57
2022/11/26 08:17:28;;;;;;;48.10;23.40;;;;;;;2.04;91.71;101372.39;100312;1296;86845;-57
2022/11/26 08:19:57;;;;;;;45.50;22.10;;;;;;;2.01;91.68;101373.70;100327;1296;81173;-57
2022/11/26 08:22:30;;;;;;;50.20;21.60;;;;;;;2.04;91.73;101373.34;100295;1296;99231;-57
2022/11/26 08:25:05;;;;;;;47.90;21.80;;;;;;;2.00;91.55;101374.52;100340;1296;95114;-58
2022/11/26 08:27:40;;;;;;;47.10;20.80;;;;;;;2.04;91.86;101375.08;100364;1293;83259;-58
2022/11/26 08:30:18;;;;;;;50.60;22.60;;;;;;;2.14;91.58;101376.98;100375;1291;88507;-58
2022/11/26 08:32:50;;;;;;;43.40;21.90;;;;;;;2.15;91.47;101381.20;100405;1296;79799;-58
2022/11/26 08:35:19;;;;;;;49.70;23.50;;;;;;;2.12;91.55;101385.52;100436;1292;99801;-60
2022/11/26 08:37:49;;;;;;;47.00;21.90;;;;;;;2.11;91.58;101390.20;100395;1295;93436;-60
2022/11/26 08:40:19;;;;;;;45.00;21.60;;;;;;;2.12;91.68;101391.18;100424;1291;82167;-58
2022/11/26 08:42:48;;;;;;;44.20;21.40;;;;;;;2.11;91.68;101397.32;100403;1293;88050;-58
2022/11/26 08:45:20;;;;;;;47.20;21.10;;;;;;;2.08;91.53;101397.20;100343;1299;79221;-58
2022/11/26 08:47:51;;;;;;;40.50;20.70;;;;;;;2.04;91.56;101399.75;100375;1296;98727;-58
2022/11/26 08:50:23;;;;;;;43.30;19.60;;;;;;;2.02;91.55;101400.43;100332;1296;95013;-61
2022/11/26 08:52:55;;;;;;;47.60;22.20;;;;;;;2.03;91.53;101404.46;100338;1290;82908;-61
2022/11/26 08:55:26;;;;;;;40.40;20.80;;;;;;;2.02;91.78;101403.67;100368;1292;87274;-61
2022/11/26 08:57:58;;;;;;;44.90;19.80;;;;;;;2.06;91.97;101403.35;100338;1291;81058;-61
2022/11/26 09:00:28;;;;;;;41.90;20.00;;;;;;;2.09;91.83;101404.38;100340;1293;97928;-59
2022/11/26 09:03:00;;;;;;;45.60;21.20;;;;;;;2.10;91.70;101402.52;100311;1299;95027;-60
2022/11/26 09:05:34;;;;;;;45.30;22.50;;;;;;;2.09;91.63;101401.21;100330;1296;81809;-58
2022/11/26 09:08:12;;;;;;;47.20;23.20;;;;;;;2.11;91.59;101402.44;100350;1299;88638;-60
2022/11/26 09:10:55;;;;;;;46.90;22.40;;;;;;;2.11;91.48;101404.96;100270;1299;79259;-57
2022/11/26 09:13:28;;;;;;;49.60;24.10;;;;;;;2.09;91.46;101409.50;100370;1292;99853;-60
2022/11/26 09:16:00;;;;;;;45.00;21.40;;;;;;;2.10;91.34;101410.18;100350;1296;94774;-60
2022/11/26 09:18:37;;;;;;;41.70;20.90;;;;;;;2.07;91.62;101409.68;100375;1296;83546;-57
2022/11/26 09:21:07;;;;;;;46.00;20.80;;;;;;;2.07;91.54;101414.27;100359;1299;88045;-57
2022/11/26 09:23:39;;;;;;;40.60;20.60;;;;;;;2.08;91.35;101416.02;100413;1296;81250;-57
2022/11/26 09:26:10;;;;;;;47.90;21.90;;;;;;;2.08;91.43;101416.56;100353;1298;98585;-57
2022/11/26 09:28:40;;;;;;;42.80;21.80;;;;;;;2.03;91.56;101417.23;100314;1297;94122;-57
2022/11/26 09:31:10;;;;;;;46.70;22.30;;;;;;;2.10;91.65;101415.89;100366;1293;82918;-57
2022/11/26 09:33:49;;;;;;;47.60;23.30;;;;;;;2.16;91.65;101417.69;100381;1294;89123;-57
2022/11/26 09:36:22;;;;;;;51.10;23.00;;;;;;;2.17;91.86;101423.14;100347;1297;79480;-57
2022/11/26 09:38:59;;;;;;;47.60;23.40;;;;;;;2.17;91.64;101423.68;100325;1299;98836;-58
2022/11/26 09:41:45;;;;;;;41.80;21.20;;;;;;;2.20;91.76;101424.55;100300;1293;95676;-58
2022/11/26 09:44:36;;;;;;;47.30;23.50;;;;;;;2.26;91.57;101421.46;100307;1293;83180;-59
2022/11/26 09:47:15;;;;;;;45.20;21.70;;;;;;;2.27;91.56;101420.44;100345;1297;87991;-62
2022/11/26 09:50:18;;;;;;;43.10;21.60;;;;;;;2.30;91.80;101419.38;100336;1298;81568;-62
2022/11/26 09:52:56;;;;;;;44.50;20.50;;;;;;;2.32;91.60;101417.75;100342;1291;98893;-62
2022/11/26 09:55:35;;;;;;;42.80;21.00;;;;;;;2.37;91.65;101418.31;100270;1296;95093;-62
2022/11/26 09:58:19;;;;;;;43.90;21.40;;;;;;;2.40;91.56;101416.69;100372;1277;81505;-62
2022/11/26 10:00:52;;;;;;;45.50;22.60;;;;;;;2.40;91.46;101420.92;100419;1293;87869;-60
2022/11/26 10:03:25;;;;;;;43.90;22.60;;;;;;;2.49;91.36;101421.86;100424;1285;77648;-60
2022/11/26 10:06:02;;;;;;;43.90;22.50;;;;;;;2.44;91.34;101418.67;100378;1296;99524;-60
2022/11/26 10:08:56;;;;;;;46.20;21.90;;;;;;;2.42;91.45;101425.27;100371;1291;95299;-58
2022/11/26 10:11:36;;;;;;;48.20;22.50;;;;;;;2.45;91.43;101434.09;100338;1292;83122;-57
2022/11/26 10:14:23;;;;;;;43.30;21.70;;;;;;;2.46;91.32;101430.14;100366;1293;88098;-62
2022/11/26 10:17:38;;;;;;;43.90;21.90;;;;;;;2.40;91.13;101438.02;100361;1296;80464;-60
2022/11/26 10:20:58;;;;;;;40.80;21.30;;;;;;;2.41;91.05;101441.49;100375;1278;100916;-59
2022/11/26 10:23:35;;;;;;;43.90;21.00;;;;;;;2.35;91.16;101440.31;100140;1298;95718;-62
2022/11/26 10:26:16;;;;;;;38.80;20.30;;;;;;;2.36;91.11;101441.49;100282;1293;82965;-60
2022/11/26 10:28:50;;;;;;;41.70;21.50;;;;;;;2.43;90.87;101442.92;100311;1292;87271;-59
2022/11/26 10:31:24;;;;;;;41.70;20.90;;;;;;;2.43;90.97;101443.67;100350;1300;80399;-59
2022/11/26 10:34:00;;;;;;;42.50;21.70;;;;;;;2.44;91.12;101445.35;99909;1293;611815;-57
2022/11/26 10:36:40;;;;;;;44.30;21.90;;;;;;;2.46;91.14;101442.00;100331;1284;94882;-61
2022/11/26 10:39:16;;;;;;;45.60;22.80;;;;;;;2.43;91.29;101445.42;100357;1294;82698;-61
2022/11/26 10:41:48;;;;;;;45.40;21.50;;;;;;;2.45;91.19;101445.09;100342;1294;87853;-59
2022/11/26 10:44:44;;;;;;;44.90;23.30;;;;;;;2.44;91.06;101446.09;100399;1294;81390;-58
2022/11/26 10:47:32;;;;;;;41.70;21.40;;;;;;;2.38;90.93;101444.15;100398;1295;99289;-63
2022/11/26 10:50:25;;;;;;;42.70;20.00;;;;;;;2.42;91.01;101444.45;100354;1294;95272;-62
2022/11/26 10:52:54;;;;;;;45.00;22.10;;;;;;;2.48;90.63;101443.83;100395;1294;81638;-60
2022/11/26 10:55:29;;;;;;;44.20;20.80;;;;;;;2.51;90.62;101443.95;100319;1295;86793;-60
2022/11/26 10:58:03;;;;;;;40.50;21.60;;;;;;;2.53;90.78;101447.15;100353;1294;79860;-58
2022/11/26 11:00:44;;;;;;;39.70;21.60;;;;;;;2.51;90.90;101449.50;100340;1284;97733;-58
2022/11/26 11:03:23;;;;;;;41.60;21.30;;;;;;;2.55;90.90;101454.16;100292;1300;95512;-59
2022/11/26 11:06:10;;;;;;;43.10;22.00;;;;;;;2.52;90.81;101453.63;100329;1294;81123;-60
2022/11/26 11:08:42;;;;;;;44.20;23.00;;;;;;;2.53;90.66;101457.36;100302;1294;88063;-58
2022/11/26 11:11:28;;;;;;;44.20;22.30;;;;;;;2.45;90.61;101458.80;100309;1298;79126;-60
2022/11/26 11:13:57;;;;;;;45.30;22.80;;;;;;;2.43;90.82;101460.89;100324;1295;99765;-58
2022/11/26 11:16:37;;;;;;;;;;;;;;;2.46;90.64;101457.13;100305;1300;95600;-59
2022/11/26 11:19:23;;;;;;;51.50;26.20;;;;;;;2.42;90.67;101456.01;100314;1294;82353;-58
2022/11/26 11:21:56;;;;;;;36.00;19.90;;;;;;;2.40;90.69;101462.17;100319;1294;87926;-58
2022/11/26 11:24:28;;;;;;;44.80;25.20;;;;;;;2.42;90.64;101465.29;100356;1300;81590;-58
2022/11/26 11:27:02;;;;;;;51.50;26.80;;;;;;;2.49;90.54;101465.83;100430;1284;97500;-60
2022/11/26 11:29:40;;;;;;;49.10;24.30;;;;;;;2.50;90.58;101466.58;100356;1295;95799;-60
2022/11/26 11:32:33;;;;;;;50.40;25.30;;;;;;;2.48;90.70;101474.20;100379;1294;82287;-58
2022/11/26 11:35:23;;;;;;;44.70;24.30;;;;;;;2.47;90.78;101472.36;100347;1295;89072;-58
2022/11/26 11:37:54;;;;;;;48.30;23.40;;;;;;;2.41;90.66;101475.81;100329;1294;79813;-58
2022/11/26 11:40:27;;;;;;;49.40;24.80;;;;;;;2.40;90.47;101473.58;100338;1293;100212;-58
2022/11/26 11:43:05;;;;;;;44.40;22.20;;;;;;;2.40;90.58;101479.60;100315;1294;96174;-63